Time;durP1;ratioP1;P1;durP2;ratioP2;P2;SDS_P1;SDS_P2;PMS_P1;PMS_P2;Temp;Humidity;BMP_temperature;BMP_pressure;BME280_temperature;BME280_humidity;BME280_pressure;Samples;Min_cycle;Max_cycle;Signal;HPM_P1;HPM_P2
2024/01/26 00:00:18;;;;;;;128.50;45.53;;;8.90;99.90;;;;;;7367044;19;20006;-64
2024/01/26 00:02:45;;;;;;;128.43;45.45;;;8.90;99.90;;;;;;7371550;19;20018;-68
2024/01/26 00:05:15;;;;;;;124.53;45.40;;;8.90;99.90;;;;;;7370962;19;20025;-69
2024/01/26 00:07:42;;;;;;;121.97;43.40;;;8.90;99.90;;;;;;7371943;19;20399;-69
2024/01/26 00:10:08;;;;;;;131.52;44.05;;;8.90;99.90;;;;;;7372707;19;20029;-64
2024/01/26 00:12:36;;;;;;;125.57;44.00;;;8.90;99.90;;;;;;7370634;19;20555;-68
2024/01/26 00:15:03;;;;;;;113.88;43.83;;;8.90;99.90;;;;;;7373130;19;20099;-68
2024/01/26 00:17:29;;;;;;;113.78;44.35;;;8.80;99.90;;;;;;7368707;19;20518;-68
2024/01/26 00:19:55;;;;;;;131.15;45.58;;;8.90;99.90;;;;;;7373138;19;20026;-64
2024/01/26 00:22:22;;;;;;;117.20;42.95;;;8.80;99.90;;;;;;7371969;19;20023;-65
2024/01/26 00:24:48;;;;;;;115.72;42.17;;;8.90;99.90;;;;;;7374672;19;20799;-64
2024/01/26 00:27:14;;;;;;;113.15;43.33;;;8.90;99.90;;;;;;7369888;19;20018;-64
2024/01/26 00:29:40;;;;;;;108.00;43.65;;;8.90;99.90;;;;;;7368291;19;20023;-68
2024/01/26 00:32:07;;;;;;;130.32;45.00;;;8.90;99.90;;;;;;7372566;19;20021;-68
2024/01/26 00:34:33;;;;;;;116.18;42.88;;;8.90;99.90;;;;;;7367443;19;20029;-68
2024/01/26 00:37:01;;;;;;;111.50;42.10;;;8.90;99.90;;;;;;7371373;19;20023;-69
2024/01/26 00:39:28;;;;;;;112.15;41.15;;;9.00;99.90;;;;;;7370658;19;20034;-68
2024/01/26 00:41:54;;;;;;;124.43;44.08;;;8.90;99.90;;;;;;7371143;19;20019;-65
2024/01/26 00:44:20;;;;;;;105.78;39.60;;;8.90;99.90;;;;;;7369498;19;20014;-68
2024/01/26 00:46:46;;;;;;;90.55;39.80;;;9.00;99.90;;;;;;7370777;19;20097;-68
2024/01/26 00:49:13;;;;;;;91.38;37.95;;;9.10;99.90;;;;;;7367418;19;20018;-68
2024/01/26 00:51:40;;;;;;;88.22;38.58;;;9.20;99.90;;;;;;7368676;19;20816;-64
2024/01/26 00:54:06;;;;;;;83.57;37.47;;;9.20;99.90;;;;;;7369620;19;20022;-64
2024/01/26 00:56:32;;;;;;;88.80;37.65;;;9.20;99.90;;;;;;7369808;19;20464;-69
2024/01/26 00:58:59;;;;;;;89.47;39.80;;;9.20;99.90;;;;;;7370979;19;20018;-68
2024/01/26 01:01:25;;;;;;;92.20;40.45;;;9.30;99.90;;;;;;7367222;19;20446;-64
2024/01/26 01:03:51;;;;;;;90.35;40.85;;;9.20;99.90;;;;;;7368629;19;20018;-64
2024/01/26 01:06:18;;;;;;;86.82;38.95;;;9.30;99.90;;;;;;7375039;19;20018;-68
2024/01/26 01:08:45;;;;;;;77.97;36.72;;;9.30;99.90;;;;;;7373210;19;20082;-68
2024/01/26 01:11:12;;;;;;;85.72;37.85;;;9.30;99.90;;;;;;7369992;19;20057;-68
2024/01/26 01:13:40;;;;;;;81.15;38.67;;;9.20;99.90;;;;;;7369124;19;20026;-68
2024/01/26 01:16:08;;;;;;;78.00;36.78;;;9.30;99.90;;;;;;7370397;19;20043;-67
2024/01/26 01:18:35;;;;;;;77.75;39.25;;;9.30;99.90;;;;;;7365356;19;20101;-68
2024/01/26 01:21:02;;;;;;;77.20;36.70;;;9.30;99.90;;;;;;7377360;19;20025;-68
2024/01/26 01:23:29;;;;;;;81.15;36.30;;;9.30;99.90;;;;;;7375584;19;20864;-68
2024/01/26 01:25:56;;;;;;;71.25;37.13;;;9.40;99.90;;;;;;7381183;19;20113;-68
2024/01/26 01:28:23;;;;;;;75.32;36.67;;;9.40;99.90;;;;;;7378460;19;20026;-68
2024/01/26 01:30:51;;;;;;;71.50;36.03;;;9.40;99.90;;;;;;7377467;19;20887;-68
2024/01/26 01:33:18;;;;;;;67.60;35.55;;;9.40;99.90;;;;;;7374460;19;20043;-68
2024/01/26 01:35:45;;;;;;;66.90;36.72;;;9.40;99.90;;;;;;7377844;19;20821;-68
2024/01/26 01:38:13;;;;;;;61.10;36.38;;;9.50;99.90;;;;;;7370472;19;20022;-63
2024/01/26 01:40:39;;;;;;;66.20;34.40;;;9.50;99.90;;;;;;7374444;19;20048;-63
2024/01/26 01:43:06;;;;;;;68.60;36.55;;;9.50;99.90;;;;;;7375110;19;20060;-63
2024/01/26 01:45:33;;;;;;;63.88;34.90;;;9.50;99.90;;;;;;7376655;19;20015;-64
2024/01/26 01:48:00;;;;;;;58.67;33.85;;;9.60;99.90;;;;;;7375930;19;20511;-63
2024/01/26 01:50:27;;;;;;;59.50;33.92;;;9.50;99.90;;;;;;7378377;19;20098;-63
2024/01/26 01:52:56;;;;;;;58.58;33.10;;;9.60;99.90;;;;;;7376363;19;20482;-63
2024/01/26 01:55:25;;;;;;;55.95;33.17;;;9.60;99.90;;;;;;7377720;19;20026;-68
2024/01/26 01:57:55;;;;;;;48.45;30.95;;;9.60;99.90;;;;;;7374977;19;20082;-64
2024/01/26 02:00:22;;;;;;;51.97;31.42;;;9.60;99.90;;;;;;7371308;19;20792;-64
2024/01/26 02:02:49;;;;;;;49.30;31.52;;;9.60;99.90;;;;;;7377506;19;20035;-64
2024/01/26 02:05:18;;;;;;;45.33;29.02;;;9.60;99.90;;;;;;7374773;19;20114;-64
2024/01/26 02:07:51;;;;;;;43.65;28.35;;;9.70;99.90;;;;;;7377250;19;20060;-64
2024/01/26 02:10:18;;;;;;;44.45;28.02;;;9.60;99.90;;;;;;7374605;19;20023;-64
2024/01/26 02:12:44;;;;;;;45.17;27.63;;;9.70;99.90;;;;;;7377928;19;20019;-64
2024/01/26 02:15:11;;;;;;;36.72;26.00;;;9.70;99.90;;;;;;7377502;19;20078;-64
2024/01/26 02:17:39;;;;;;;44.90;28.48;;;9.70;99.90;;;;;;7370701;19;20015;-64
2024/01/26 02:20:06;;;;;;;38.28;25.90;;;9.70;99.90;;;;;;7373519;19;20023;-69
2024/01/26 02:22:32;;;;;;;40.55;26.05;;;9.70;99.90;;;;;;7375287;19;20022;-69
2024/01/26 02:24:59;;;;;;;39.50;25.77;;;9.70;99.90;;;;;;7370305;19;20496;-64
2024/01/26 02:27:26;;;;;;;35.22;26.25;;;9.80;99.90;;;;;;7370964;19;20022;-65
2024/01/26 02:29:52;;;;;;;32.58;23.00;;;9.80;99.90;;;;;;7376116;19;20030;-64
2024/01/26 02:32:18;;;;;;;38.33;25.75;;;9.80;99.90;;;;;;7374608;19;20023;-63
2024/01/26 02:34:45;;;;;;;33.05;23.52;;;9.80;99.90;;;;;;7379333;19;20014;-68
2024/01/26 02:37:11;;;;;;;31.63;24.77;;;9.80;99.90;;;;;;7374149;19;20673;-68
2024/01/26 02:39:38;;;;;;;33.83;24.42;;;9.80;99.90;;;;;;7373757;19;20014;-68
2024/01/26 02:42:05;;;;;;;32.40;23.25;;;9.80;99.90;;;;;;7377431;19;20586;-68
2024/01/26 02:44:33;;;;;;;31.42;23.50;;;9.80;99.90;;;;;;7375879;19;20018;-68
2024/01/26 02:46:59;;;;;;;30.73;23.17;;;9.80;99.90;;;;;;7372190;19;20050;-68
2024/01/26 02:49:26;;;;;;;29.60;22.42;;;9.90;99.90;;;;;;7368962;19;20029;-68
2024/01/26 02:51:52;;;;;;;32.35;24.13;;;9.90;99.90;;;;;;7374484;19;20022;-69
2024/01/26 02:54:21;;;;;;;30.52;22.05;;;9.90;99.90;;;;;;7371336;19;20878;-69
2024/01/26 02:56:48;;;;;;;32.20;24.70;;;9.90;99.90;;;;;;7373458;19;20018;-69
2024/01/26 02:59:14;;;;;;;27.88;22.38;;;9.90;99.90;;;;;;7372979;19;20022;-68
2024/01/26 03:01:40;;;;;;;32.03;23.60;;;9.90;99.90;;;;;;7372569;19;20023;-68
2024/01/26 03:04:06;;;;;;;29.88;23.70;;;9.80;99.90;;;;;;7374018;19;20116;-68
2024/01/26 03:06:33;;;;;;;31.73;23.92;;;9.80;99.90;;;;;;7373237;19;20021;-68
2024/01/26 03:09:00;;;;;;;30.80;24.17;;;9.80;99.90;;;;;;7371067;19;20014;-68
2024/01/26 03:11:40;;;;;;;33.83;23.83;;;9.80;99.90;;;;;;7371832;19;20090;-68
2024/01/26 03:14:07;;;;;;;32.10;23.67;;;9.80;99.90;;;;;;7372964;19;20096;-64
2024/01/26 03:16:39;;;;;;;31.20;23.85;;;9.80;99.90;;;;;;7371876;19;20063;-69
2024/01/26 03:19:09;;;;;;;31.02;23.67;;;9.80;99.90;;;;;;7372263;19;20407;-68
2024/01/26 03:21:46;;;;;;;34.95;25.85;;;9.80;99.90;;;;;;7368723;19;20575;-68
2024/01/26 03:24:13;;;;;;;30.45;23.50;;;9.80;99.90;;;;;;7373619;19;20507;-63
2024/01/26 03:26:41;;;;;;;35.13;25.55;;;9.90;99.90;;;;;;7373385;19;20017;-64
2024/01/26 03:29:08;;;;;;;35.03;25.90;;;9.80;99.90;;;;;;7372273;19;20018;-68
2024/01/26 03:31:35;;;;;;;32.22;25.13;;;9.80;99.90;;;;;;7367895;19;20022;-64
2024/01/26 03:34:02;;;;;;;32.35;25.02;;;9.80;99.90;;;;;;7374421;19;20015;-64
2024/01/26 03:36:29;;;;;;;35.45;26.30;;;9.80;99.90;;;;;;7374019;19;20018;-64
2024/01/26 03:38:56;;;;;;;35.95;26.55;;;9.80;99.90;;;;;;7370774;19;20021;-64
2024/01/26 03:41:23;;;;;;;34.20;25.88;;;9.90;99.90;;;;;;7371206;19;20018;-64
2024/01/26 03:43:53;;;;;;;37.17;26.92;;;9.90;99.90;;;;;;7371946;19;20022;-68
2024/01/26 03:46:20;;;;;;;37.55;26.27;;;9.90;99.90;;;;;;7372106;19;20045;-63
2024/01/26 03:48:50;;;;;;;35.72;25.60;;;9.90;99.90;;;;;;7373950;19;20010;-64
2024/01/26 03:51:17;;;;;;;34.70;26.23;;;9.90;99.90;;;;;;7369451;19;20498;-64
2024/01/26 03:53:44;;;;;;;35.70;25.20;;;9.90;99.90;;;;;;7370939;19;20019;-64
2024/01/26 03:56:11;;;;;;;35.00;25.50;;;9.90;99.90;;;;;;7372078;19;20018;-64
2024/01/26 03:58:38;;;;;;;31.85;23.00;;;9.90;99.90;;;;;;7371859;19;20523;-64
2024/01/26 04:01:05;;;;;;;36.45;25.42;;;9.90;99.90;;;;;;7366690;19;20030;-64
2024/01/26 04:03:31;;;;;;;33.03;24.00;;;9.90;99.90;;;;;;7374372;19;20362;-68
2024/01/26 04:05:57;;;;;;;37.88;25.15;;;9.90;99.90;;;;;;7368723;19;20019;-68
2024/01/26 04:08:24;;;;;;;36.90;26.25;;;9.90;99.90;;;;;;7366119;19;20544;-68
2024/01/26 04:10:50;;;;;;;32.67;24.25;;;9.90;99.90;;;;;;7369804;19;20039;-67
2024/01/26 04:13:16;;;;;;;36.65;24.85;;;9.90;99.90;;;;;;7374718;19;20022;-63
2024/01/26 04:15:44;;;;;;;38.33;25.13;;;9.90;99.90;;;;;;7370023;19;20021;-63
2024/01/26 04:18:14;;;;;;;38.22;26.98;;;9.90;99.90;;;;;;7369416;19;20085;-64
2024/01/26 04:20:40;;;;;;;39.70;26.10;;;10.00;99.90;;;;;;7366824;19;20531;-67
2024/01/26 04:23:06;;;;;;;38.65;26.13;;;10.00;99.90;;;;;;7369735;19;20018;-67
2024/01/26 04:25:32;;;;;;;40.17;24.65;;;10.00;99.90;;;;;;7365887;19;20022;-67
2024/01/26 04:27:59;;;;;;;35.97;24.67;;;10.00;99.90;;;;;;7368329;19;20022;-67
2024/01/26 04:30:25;;;;;;;34.83;26.17;;;10.00;99.90;;;;;;7362060;19;20460;-69
2024/01/26 04:32:51;;;;;;;37.80;25.08;;;10.00;99.90;;;;;;7367325;19;20046;-67
2024/01/26 04:35:20;;;;;;;35.35;24.60;;;10.00;99.90;;;;;;7366511;19;20026;-67
2024/01/26 04:37:47;;;;;;;34.50;25.88;;;10.10;99.90;;;;;;7367472;19;20748;-67
2024/01/26 04:40:13;;;;;;;34.78;24.90;;;10.10;99.90;;;;;;7363125;19;20521;-67
2024/01/26 04:42:40;;;;;;;33.05;25.02;;;10.10;99.90;;;;;;7367726;19;20643;-63
2024/01/26 04:45:06;;;;;;;34.88;25.90;;;10.10;99.90;;;;;;7364722;19;20486;-63
2024/01/26 04:47:32;;;;;;;34.65;24.80;;;10.10;99.90;;;;;;7366371;19;20014;-63
2024/01/26 04:49:58;;;;;;;37.00;26.48;;;10.20;99.90;;;;;;7368130;19;20478;-63
2024/01/26 04:52:26;;;;;;;35.20;26.85;;;10.20;99.90;;;;;;7368487;19;20011;-68
2024/01/26 04:54:52;;;;;;;36.95;27.20;;;10.30;99.90;;;;;;7361329;19;20110;-63
2024/01/26 04:57:19;;;;;;;37.03;27.25;;;10.30;99.90;;;;;;7368823;19;20022;-68
2024/01/26 04:59:46;;;;;;;37.97;27.83;;;10.30;99.90;;;;;;7363064;19;20093;-68
2024/01/26 05:02:13;;;;;;;39.25;27.58;;;10.30;99.90;;;;;;7361859;19;20078;-68
2024/01/26 05:04:40;;;;;;;37.38;27.45;;;10.30;99.90;;;;;;7365626;19;20015;-68
2024/01/26 05:07:07;;;;;;;39.03;29.48;;;10.30;99.90;;;;;;7366712;19;20039;-68
2024/01/26 05:09:37;;;;;;;39.92;30.00;;;10.30;99.90;;;;;;7365777;19;20014;-64
2024/01/26 05:12:05;;;;;;;35.92;28.33;;;10.40;99.90;;;;;;7363193;19;20029;-63
2024/01/26 05:14:35;;;;;;;38.75;29.73;;;10.40;99.90;;;;;;7364683;19;20018;-63
2024/01/26 05:17:04;;;;;;;36.65;27.98;;;10.40;99.90;;;;;;7367616;19;20018;-63
2024/01/26 05:19:31;;;;;;;38.80;29.02;;;10.40;99.90;;;;;;7363842;19;20134;-67
2024/01/26 05:21:58;;;;;;;34.20;28.95;;;10.50;99.90;;;;;;7362169;19;20015;-67
2024/01/26 05:24:25;;;;;;;34.00;27.73;;;10.50;99.90;;;;;;7365636;19;20022;-65
2024/01/26 05:26:55;;;;;;;36.80;27.20;;;10.60;99.90;;;;;;7366502;19;20086;-65
2024/01/26 05:29:22;;;;;;;34.70;28.15;;;10.50;99.90;;;;;;7367047;19;20010;-65
2024/01/26 05:31:49;;;;;;;33.58;28.02;;;10.60;99.90;;;;;;7367435;19;20378;-64
2024/01/26 05:34:16;;;;;;;32.38;26.30;;;10.60;99.90;;;;;;7366766;19;20034;-65
2024/01/26 05:36:43;;;;;;;32.97;26.70;;;10.60;99.90;;;;;;7366561;19;20095;-65
2024/01/26 05:39:10;;;;;;;33.33;26.30;;;10.60;99.90;;;;;;7368074;19;20056;-69
2024/01/26 05:41:37;;;;;;;32.15;27.30;;;10.60;99.90;;;;;;7363755;19;21365;-69
2024/01/26 05:44:03;;;;;;;31.48;26.92;;;10.60;99.90;;;;;;7370040;19;20014;-69
2024/01/26 05:46:30;;;;;;;32.83;26.40;;;10.60;99.90;;;;;;7365407;19;20817;-68
2024/01/26 05:48:57;;;;;;;33.45;27.23;;;10.60;99.90;;;;;;7372730;19;20011;-68
2024/01/26 05:51:26;;;;;;;32.92;26.23;;;10.60;99.90;;;;;;7362632;19;20047;-69
2024/01/26 05:53:53;;;;;;;33.03;26.27;;;10.60;99.90;;;;;;7368762;19;20025;-68
2024/01/26 05:56:19;;;;;;;32.85;25.70;;;10.50;99.90;;;;;;7364893;19;20019;-69
2024/01/26 05:58:46;;;;;;;31.67;25.50;;;10.50;99.90;;;;;;7366682;19;20519;-68
2024/01/26 06:01:12;;;;;;;32.50;23.92;;;10.50;99.90;;;;;;7365682;19;20603;-68
2024/01/26 06:03:38;;;;;;;31.88;24.60;;;10.50;99.90;;;;;;7368808;19;20510;-68
2024/01/26 06:06:05;;;;;;;35.42;26.80;;;10.50;99.90;;;;;;7373978;19;20042;-68
2024/01/26 06:08:31;;;;;;;31.05;24.67;;;10.50;99.90;;;;;;7373700;19;20487;-68
2024/01/26 06:10:57;;;;;;;33.45;24.58;;;10.50;99.90;;;;;;7374050;19;20107;-69
2024/01/26 06:13:24;;;;;;;29.70;24.67;;;10.50;99.90;;;;;;7374535;19;20482;-65
2024/01/26 06:15:50;;;;;;;34.30;24.88;;;10.40;99.90;;;;;;7371830;19;20064;-64
2024/01/26 06:18:20;;;;;;;35.33;25.15;;;10.40;99.90;;;;;;7374474;19;20126;-64
2024/01/26 06:20:46;;;;;;;35.80;24.70;;;10.40;99.90;;;;;;7368386;19;20106;-64
2024/01/26 06:23:13;;;;;;;34.45;24.77;;;10.40;99.90;;;;;;7373114;19;20019;-63
2024/01/26 06:25:39;;;;;;;36.72;24.33;;;10.40;99.90;;;;;;7370329;19;20025;-63
2024/01/26 06:28:05;;;;;;;33.85;24.10;;;10.40;99.90;;;;;;7374023;19;20014;-63
2024/01/26 06:30:31;;;;;;;32.30;24.10;;;10.40;99.90;;;;;;7371568;19;20019;-67
2024/01/26 06:32:58;;;;;;;35.15;23.45;;;10.40;99.90;;;;;;7371068;19;20019;-67
2024/01/26 06:35:25;;;;;;;34.20;23.35;;;10.40;99.90;;;;;;7367426;19;20018;-66
2024/01/26 06:37:52;;;;;;;32.22;24.33;;;10.40;99.90;;;;;;7370307;19;20052;-63
2024/01/26 06:40:19;;;;;;;34.72;23.58;;;10.40;99.90;;;;;;7367829;19;20851;-62
2024/01/26 06:42:46;;;;;;;34.72;23.27;;;10.40;99.90;;;;;;7372808;19;20078;-62
2024/01/26 06:45:13;;;;;;;31.05;22.27;;;10.50;99.90;;;;;;7367856;19;20495;-62
2024/01/26 06:47:40;;;;;;;33.90;24.13;;;10.50;99.90;;;;;;7370210;19;20022;-61
2024/01/26 06:50:07;;;;;;;32.97;23.30;;;10.50;99.90;;;;;;7372286;19;20094;-61
2024/01/26 06:52:35;;;;;;;35.53;23.48;;;10.50;99.90;;;;;;7372994;19;20018;-61
2024/01/26 06:55:02;;;;;;;29.60;21.52;;;10.50;99.90;;;;;;7366959;19;20098;-62
2024/01/26 06:57:28;;;;;;;32.72;21.98;;;10.50;99.90;;;;;;7367374;19;20014;-62
2024/01/26 06:59:54;;;;;;;28.17;21.10;;;10.50;99.90;;;;;;7369993;19;20022;-62
2024/01/26 07:02:21;;;;;;;27.58;20.45;;;10.50;99.90;;;;;;7367478;19;20102;-66
2024/01/26 07:04:50;;;;;;;25.55;19.85;;;10.50;99.90;;;;;;7372701;19;20058;-66
2024/01/26 07:07:16;;;;;;;27.10;19.60;;;10.50;99.90;;;;;;7370638;19;20022;-62
2024/01/26 07:09:42;;;;;;;28.48;20.10;;;10.50;99.90;;;;;;7364233;19;20043;-63
2024/01/26 07:12:08;;;;;;;27.20;18.27;;;10.50;99.90;;;;;;7365136;19;20070;-61
2024/01/26 07:14:35;;;;;;;23.23;16.42;;;10.60;99.90;;;;;;7360703;19;20101;-62
2024/01/26 07:17:01;;;;;;;23.35;18.38;;;10.50;99.90;;;;;;7365570;19;20380;-63
2024/01/26 07:19:27;;;;;;;26.95;17.13;;;10.50;99.90;;;;;;7366843;19;20034;-62
2024/01/26 07:21:53;;;;;;;23.38;17.95;;;10.60;99.90;;;;;;7371362;19;20078;-62
2024/01/26 07:24:20;;;;;;;21.92;15.90;;;10.60;99.90;;;;;;7369108;19;20057;-61
2024/01/26 07:26:46;;;;;;;20.92;16.25;;;10.60;99.90;;;;;;7372567;19;20593;-62
2024/01/26 07:29:12;;;;;;;21.95;14.65;;;10.50;99.90;;;;;;7368930;19;20018;-62
2024/01/26 07:31:41;;;;;;;23.15;17.50;;;10.50;99.90;;;;;;7357350;19;20630;-61
2024/01/26 07:34:07;;;;;;;25.65;17.60;;;10.50;99.90;;;;;;7363506;19;20022;-65
2024/01/26 07:36:36;;;;;;;21.27;16.17;;;10.50;99.90;;;;;;7370982;19;20014;-66
2024/01/26 07:39:05;;;;;;;19.98;14.32;;;10.50;99.90;;;;;;7378440;19;20830;-66
2024/01/26 07:41:31;;;;;;;19.85;13.60;;;10.60;99.90;;;;;;7375437;19;20047;-67
2024/01/26 07:43:59;;;;;;;20.48;13.77;;;10.50;99.90;;;;;;7376427;19;20026;-67
2024/01/26 07:46:26;;;;;;;19.73;14.43;;;10.50;99.90;;;;;;7374930;19;20089;-66
2024/01/26 07:48:52;;;;;;;18.88;13.23;;;10.60;99.90;;;;;;7379482;19;20018;-67
2024/01/26 07:51:19;;;;;;;21.58;14.35;;;10.60;99.90;;;;;;7375424;19;20043;-62
2024/01/26 07:53:45;;;;;;;17.88;13.02;;;10.60;99.90;;;;;;7374942;19;20078;-63
2024/01/26 07:56:13;;;;;;;17.13;12.18;;;10.50;99.90;;;;;;7375500;19;20018;-63
2024/01/26 07:58:40;;;;;;;16.33;12.85;;;10.50;99.90;;;;;;7378377;19;20022;-63
2024/01/26 08:01:07;;;;;;;18.58;13.15;;;10.50;99.90;;;;;;7371863;19;20859;-63
2024/01/26 08:03:34;;;;;;;17.20;12.95;;;10.60;99.90;;;;;;7379465;19;20096;-63
2024/01/26 08:06:00;;;;;;;16.88;11.98;;;10.60;99.90;;;;;;7376154;19;20577;-63
2024/01/26 08:08:27;;;;;;;15.98;11.63;;;10.60;99.90;;;;;;7381185;19;20018;-63
2024/01/26 08:10:57;;;;;;;15.38;11.20;;;10.60;99.90;;;;;;7366498;19;20081;-67
2024/01/26 08:13:24;;;;;;;16.83;12.23;;;10.60;99.90;;;;;;7346048;19;20034;-63
2024/01/26 08:15:51;;;;;;;16.65;11.15;;;10.60;99.90;;;;;;7364669;19;20630;-63
2024/01/26 08:18:18;;;;;;;17.88;12.90;;;10.70;99.90;;;;;;7373801;19;20495;-62
2024/01/26 08:20:46;;;;;;;15.25;11.77;;;10.70;99.90;;;;;;7373059;19;20018;-63
2024/01/26 08:23:13;;;;;;;13.73;10.52;;;10.60;99.90;;;;;;7374869;19;20368;-63
2024/01/26 08:25:40;;;;;;;15.65;11.57;;;10.70;99.90;;;;;;7370892;19;20014;-63
2024/01/26 08:28:06;;;;;;;14.38;10.65;;;10.80;99.90;;;;;;7369511;19;20025;-63
2024/01/26 08:30:34;;;;;;;15.10;11.18;;;10.80;99.90;;;;;;7371259;19;20018;-63
2024/01/26 08:33:00;;;;;;;14.93;11.75;;;10.80;99.90;;;;;;7372116;19;20019;-63
2024/01/26 08:35:26;;;;;;;15.05;11.77;;;10.80;99.90;;;;;;7371212;19;20808;-63
2024/01/26 08:37:53;;;;;;;18.17;13.88;;;10.70;99.90;;;;;;7371647;19;20019;-62
2024/01/26 08:40:20;;;;;;;16.48;12.55;;;10.90;99.90;;;;;;7373525;19;20757;-63
2024/01/26 08:42:47;;;;;;;17.15;13.70;;;10.90;99.90;;;;;;7375017;19;20878;-63
2024/01/26 08:45:13;;;;;;;18.55;13.50;;;10.90;99.90;;;;;;7376496;19;21008;-63
2024/01/26 08:47:40;;;;;;;19.85;14.48;;;10.90;99.90;;;;;;7374142;19;20025;-63
2024/01/26 08:50:07;;;;;;;18.33;14.50;;;10.90;99.90;;;;;;7376339;19;20716;-63
2024/01/26 08:52:34;;;;;;;18.75;14.88;;;11.00;99.90;;;;;;7374077;19;20019;-67
2024/01/26 08:55:00;;;;;;;17.70;14.70;;;10.80;99.90;;;;;;7372254;19;20496;-66
2024/01/26 08:57:31;;;;;;;19.90;16.70;;;10.80;99.90;;;;;;7371942;19;20018;-68
2024/01/26 08:59:59;;;;;;;19.85;16.88;;;10.90;99.90;;;;;;7375326;19;20389;-68
2024/01/26 09:02:26;;;;;;;22.05;17.35;;;10.80;99.90;;;;;;7368698;19;20551;-64
2024/01/26 09:04:53;;;;;;;22.13;18.15;;;10.80;99.90;;;;;;7375026;19;20022;-63
2024/01/26 09:07:21;;;;;;;22.33;17.10;;;10.90;99.90;;;;;;7371131;19;20854;-63
2024/01/26 09:09:48;;;;;;;22.27;18.83;;;10.80;99.90;;;;;;7371317;19;20022;-61
2024/01/26 09:12:15;;;;;;;19.83;17.35;;;10.80;99.90;;;;;;7374246;19;20037;-61
2024/01/26 09:14:41;;;;;;;23.80;17.05;;;10.80;99.90;;;;;;7370073;19;20043;-68
2024/01/26 09:17:08;;;;;;;21.08;17.05;;;10.90;99.90;;;;;;7373684;19;20026;-61
2024/01/26 09:19:34;;;;;;;21.05;16.55;;;10.90;99.90;;;;;;7365905;19;20028;-68
2024/01/26 09:22:00;;;;;;;19.67;13.40;;;10.90;99.90;;;;;;7371672;19;20095;-61
2024/01/26 09:24:27;;;;;;;18.67;14.32;;;11.00;99.90;;;;;;7375820;19;20023;-67
2024/01/26 09:26:55;;;;;;;18.25;12.95;;;10.90;99.90;;;;;;7374743;19;20382;-61
2024/01/26 09:29:23;;;;;;;21.80;12.20;;;10.90;99.90;;;;;;7371755;19;20051;-68
2024/01/26 09:31:52;;;;;;;14.23;9.20;;;10.80;99.90;;;;;;7372501;19;20044;-61
2024/01/26 09:34:19;;;;;;;6.88;2.72;;;10.90;99.90;;;;;;7376211;19;20600;-69
2024/01/26 09:36:46;;;;;;;2.45;0.90;;;10.10;99.90;;;;;;7370435;19;20875;-69
2024/01/26 09:39:12;;;;;;;3.53;0.80;;;9.30;99.90;;;;;;7372444;19;20014;-71
2024/01/26 09:41:39;;;;;;;4.93;1.30;;;9.00;99.90;;;;;;7378493;19;20022;-71
2024/01/26 09:44:05;;;;;;;5.30;1.08;;;8.80;99.90;;;;;;7378372;19;20044;-70
2024/01/26 09:46:32;;;;;;;4.40;1.13;;;8.80;99.90;;;;;;7379356;19;20042;-61
2024/01/26 09:49:02;;;;;;;4.47;1.10;;;8.80;99.90;;;;;;7378878;19;20018;-61
2024/01/26 09:51:29;;;;;;;5.93;1.20;;;8.70;99.90;;;;;;7379235;19;20026;-61
2024/01/26 09:53:59;;;;;;;4.57;1.08;;;8.70;99.90;;;;;;7378198;19;20496;-70
2024/01/26 09:56:29;;;;;;;7.18;1.80;;;8.60;99.90;;;;;;7375139;19;20048;-70
2024/01/26 09:58:55;;;;;;;9.98;1.60;;;8.60;99.90;;;;;;7378246;19;20605;-61
2024/01/26 10:01:22;;;;;;;6.07;1.88;;;8.70;99.90;;;;;;7375934;19;20870;-61
2024/01/26 10:03:52;;;;;;;11.48;1.63;;;8.50;99.90;;;;;;7380594;19;20027;-72
2024/01/26 10:06:21;;;;;;;8.13;1.70;;;8.50;99.90;;;;;;7376963;19;20610;-71
2024/01/26 10:08:48;;;;;;;15.02;4.28;;;8.40;99.90;;;;;;7379595;19;20773;-67
2024/01/26 10:11:19;;;;;;;8.88;1.75;;;8.40;99.90;;;;;;7379763;19;20019;-61
2024/01/26 10:13:45;;;;;;;12.48;2.50;;;8.40;99.90;;;;;;7374878;19;20018;-61
2024/01/26 10:16:13;;;;;;;11.52;1.85;;;8.40;99.90;;;;;;7377802;19;20553;-72
2024/01/26 10:18:43;;;;;;;12.25;2.33;;;8.30;99.90;;;;;;7376658;19;20018;-71
2024/01/26 10:21:15;;;;;;;15.43;2.10;;;8.30;99.90;;;;;;7372830;19;20096;-70
2024/01/26 10:23:42;;;;;;;11.75;2.60;;;8.30;99.90;;;;;;7375246;19;20014;-61
2024/01/26 10:26:11;;;;;;;12.98;2.90;;;8.20;99.90;;;;;;7378141;19;20090;-60
2024/01/26 10:28:38;;;;;;;15.27;2.72;;;8.20;99.90;;;;;;7376077;19;20015;-69
2024/01/26 10:31:05;;;;;;;14.60;3.53;;;8.20;99.90;;;;;;7377679;19;20610;-70
2024/01/26 10:33:32;;;;;;;12.95;2.78;;;8.20;99.90;;;;;;7379350;19;20011;-61
2024/01/26 10:36:00;;;;;;;17.52;3.13;;;8.10;99.90;;;;;;7377081;19;20022;-70
2024/01/26 10:38:31;;;;;;;15.10;3.08;;;8.10;99.90;;;;;;7376297;19;20172;-60
2024/01/26 10:41:03;;;;;;;21.08;5.25;;;8.10;99.90;;;;;;7374945;19;20026;-61
2024/01/26 10:43:31;;;;;;;12.85;2.88;;;8.10;99.90;;;;;;7373864;19;20022;-61
2024/01/26 10:45:59;;;;;;;12.27;2.55;;;8.00;99.90;;;;;;7378388;19;20484;-61
2024/01/26 10:48:27;;;;;;;9.57;3.40;;;8.00;99.90;;;;;;7375657;19;20015;-70
2024/01/26 10:50:55;;;;;;;12.25;3.28;;;8.00;99.90;;;;;;7374117;19;20094;-72
2024/01/26 10:53:23;;;;;;;19.48;3.13;;;7.90;99.90;;;;;;7377070;19;20830;-61
2024/01/26 10:55:51;;;;;;;12.63;2.80;;;7.90;99.90;;;;;;7372576;19;20031;-61
2024/01/26 10:58:19;;;;;;;15.23;2.70;;;7.90;99.90;;;;;;7373401;19;20026;-62
2024/01/26 11:00:47;;;;;;;15.77;2.83;;;7.90;99.90;;;;;;7373591;19;20077;-70
2024/01/26 11:03:15;;;;;;;16.38;3.58;;;7.90;99.90;;;;;;7372252;19;20029;-61
2024/01/26 11:05:49;;;;;;;18.17;3.05;;;7.90;99.90;;;;;;7371755;19;20027;-60
2024/01/26 11:08:22;;;;;;;17.17;3.70;;;7.90;99.90;;;;;;7374548;19;20018;-70
2024/01/26 11:10:51;;;;;;;15.13;3.70;;;7.90;99.90;;;;;;7371775;19;20705;-62
2024/01/26 11:13:18;;;;;;;19.25;2.83;;;7.90;99.90;;;;;;7378276;19;20026;-71
2024/01/26 11:15:47;;;;;;;15.50;3.03;;;7.90;99.90;;;;;;7370620;19;20539;-72
2024/01/26 11:18:25;;;;;;;18.08;4.55;;;7.90;99.90;;;;;;7378469;19;20022;-73
2024/01/26 11:20:52;;;;;;;19.17;3.97;;;7.90;99.90;;;;;;7376974;19;20019;-71
2024/01/26 11:23:20;;;;;;;20.67;5.38;;;7.90;99.90;;;;;;7377953;19;20587;-72
2024/01/26 11:25:50;;;;;;;16.05;3.60;;;7.80;99.90;;;;;;7378339;19;20014;-72
2024/01/26 11:28:26;;;;;;;16.17;3.15;;;7.80;99.90;;;;;;7378736;19;20018;-72
2024/01/26 11:30:56;;;;;;;15.73;3.75;;;7.70;99.90;;;;;;7377268;19;20616;-71
2024/01/26 11:33:24;;;;;;;19.67;3.67;;;7.70;99.90;;;;;;7380193;19;20105;-63
2024/01/26 11:36:05;;;;;;;18.33;3.40;;;7.70;99.90;;;;;;7377497;19;20022;-71
2024/01/26 11:38:33;;;;;;;14.07;3.60;;;7.70;99.90;;;;;;7377337;19;20108;-71
2024/01/26 11:41:01;;;;;;;19.63;3.75;;;7.60;99.90;;;;;;7376575;19;20015;-72
2024/01/26 11:43:29;;;;;;;13.20;4.05;;;7.60;99.90;;;;;;7380364;19;20516;-62
2024/01/26 11:45:57;;;;;;;19.75;4.10;;;7.60;99.90;;;;;;7374347;19;20915;-73
2024/01/26 11:48:24;;;;;;;18.55;4.10;;;7.60;99.90;;;;;;7376928;19;20830;-64
2024/01/26 11:50:52;;;;;;;20.95;4.20;;;7.50;99.90;;;;;;7371355;19;20018;-63
2024/01/26 11:53:19;;;;;;;13.90;3.13;;;7.60;99.90;;;;;;7380065;19;20582;-63
2024/01/26 11:55:46;;;;;;;16.10;4.32;;;7.60;99.90;;;;;;7372560;19;20073;-64
2024/01/26 11:58:13;;;;;;;15.73;2.92;;;7.50;99.90;;;;;;7376629;19;20479;-72
2024/01/26 12:00:42;;;;;;;16.88;3.20;;;7.50;99.90;;;;;;7374537;19;20022;-73
2024/01/26 12:03:10;;;;;;;21.95;3.70;;;7.50;99.90;;;;;;7374296;19;20063;-72
2024/01/26 12:05:37;;;;;;;18.40;4.22;;;7.50;99.90;;;;;;7375769;19;20030;-62
2024/01/26 12:08:06;;;;;;;16.35;3.22;;;7.60;99.90;;;;;;7377722;19;20026;-63
2024/01/26 12:10:35;;;;;;;16.80;3.83;;;8.00;99.90;;;;;;7373239;19;20014;-62
2024/01/26 12:13:03;;;;;;;18.00;3.15;;;8.20;99.90;;;;;;7376215;19;20089;-63
2024/01/26 12:15:31;;;;;;;18.02;4.05;;;8.20;99.90;;;;;;7375949;19;21131;-62
2024/01/26 12:18:01;;;;;;;22.70;4.57;;;8.20;99.90;;;;;;7372909;19;20026;-62
2024/01/26 12:20:27;;;;;;;19.30;3.60;;;8.30;99.90;;;;;;7374030;19;20022;-69
2024/01/26 12:22:56;;;;;;;19.05;3.85;;;8.20;99.90;;;;;;7371097;19;20468;-71
2024/01/26 12:25:27;;;;;;;20.92;6.32;;;8.20;99.90;;;;;;7373100;19;20022;-62
2024/01/26 12:28:02;;;;;;;16.05;6.15;;;8.30;99.90;;;;;;7369799;19;20126;-69
2024/01/26 12:30:29;;;;;;;19.48;4.07;;;8.20;99.90;;;;;;7374835;19;20022;-71
2024/01/26 12:33:07;;;;;;;20.70;4.30;;;8.30;99.90;;;;;;7372438;19;20026;-71
2024/01/26 12:35:39;;;;;;;21.58;4.05;;;8.30;99.90;;;;;;7372685;19;20109;-71